El Paso, TX (88520)

5:31 PM MDT on September 02, 2015 (GMT -0600)
SanClemente Estates | | Change Station
CLOSE
Current Station
Personal Weather Station
Location: EL PASO, TX
Elevation: 4606 ft
Nearby Weather Stations

Elev 4606 ft 31.82 °N, 106.50 °W | Updated 0 second ago

Mostly Cloudy
Mostly Cloudy
91.4 °F
Feels Like 88 °F
N
2.2
Wind Variable Wind from SSW
Gusts 2.2 mph

Today
High -- | Low -- °F
--% Chance of Precip.
Yesterday
High -- | Low -- °F
Precip. -- in
6:41 AM 7:28 PM
Waning Gibbous, 76% visible
Pressure 29.72 in
Visibility 10.0 miles
Clouds Few 12000 ft
Mostly Cloudy 26000 ft
Heat Index 88 °F
Dew Point 45 °F
Humidity 20%
Rainfall 0.00 in
Snow Depth Not available.
UV 2 out of 12
Pollen 9.30 out of 12
Air Quality Not available.
Flu Activity Not available.
METAR KELP 022251Z 15005KT 10SM FEW120 BKN260 36/05 A2996 RMK AO2 SLP062 OCNL LTGICCG DSNT NE W AND NW CB DSNT N NE W AND NW T03610050
Pressure 29.72 in
Visibility 10.0 miles
Clouds Few 12000 ft
Mostly Cloudy 26000 ft
Heat Index 88 °F
Dew Point 45 °F
Humidity 20%
Rainfall 0.00 in
Snow Depth Not available.
UV 2 out of 12
Pollen 9.30 out of 12
Air Quality Not available.
Flu Activity Not available.
METAR KELP 022251Z 15005KT 10SM FEW120 BKN260 36/05 A2996 RMK AO2 SLP062 OCNL LTGICCG DSNT NE W AND NW CB DSNT N NE W AND NW T03610050
Nowcast | as of 3:48 PM MDT on September 2, 2015

Isolated to scattered showers and thunderstorms are continuing over the area with weather radar showing most movement to the north northeast around 10 to 15 mph. Some areas have received from

inches of rain over the last 2 hours mainly south of Loma Linda in Hudspeth County. Periods of moderate to briefly heavy rainfall are possible into the evening hours along with wind gusts of 40 to 50 mph...small hail and occasional cloud to ground lightning.

×

10-Day Weather Forecast

×

Almanac

Astronomy

Sep. 02, 2015 Rise Set
Actual Time
Civil Twilight
Nautical Twilight
Astronomical Twilight
Moon
Length of Visible Light
Length of Day
Tomorrow will be .
, % of the Moon is Illuminated

Today's Extremes

State Highs State Lows

Community

WunderPhotos

Upload Photos

1,851,831 photos uploaded!

WunderBlogs® & News

Nearby

Air Quality

  Air Quality AQ Index Pollutant
Not available.

Snow Depth

Station Depth Elevation

Earthquake Activity

City Distance Mag. Time & Date
Minimum magnitude displayed is 2.5.

Coastal Water Temperatures

Place Temperature

Stations

Nearby Weather Stations

Station Location Temp. Windchill Dew Point Humidity Wind Precip. Elev Updated Type